sensor_id;sensor_type;location;lat;lon;timestamp;pressure;altitude;pressure_sealevel;temperature;humidity
57894;BME280;43710;47.460;19.034;2023-05-02T03:58:06;100603.22;;;14.82;49.05
57894;BME280;43710;47.460;19.034;2023-05-02T04:01:13;100603.22;;;14.82;49.05
57894;BME280;43710;47.460;19.034;2023-05-02T04:04:17;100605.03;;;14.45;59.00
57894;BME280;43710;47.460;19.034;2023-05-02T04:07:20;100611.56;;;14.58;58.71
57894;BME280;43710;47.460;19.034;2023-05-02T04:10:23;100608.53;;;14.60;51.79
57894;BME280;43710;47.460;19.034;2023-05-02T04:13:25;100610.63;;;14.49;56.29
57894;BME280;43710;47.460;19.034;2023-05-02T04:16:30;100614.22;;;14.44;53.57
57894;BME280;43710;47.460;19.034;2023-05-02T04:19:33;100609.72;;;14.40;56.53
57894;BME280;43710;47.460;19.034;2023-05-02T04:22:36;100606.44;;;14.43;54.95
57894;BME280;43710;47.460;19.034;2023-05-02T04:25:40;100611.44;;;14.63;54.64
57894;BME280;43710;47.460;19.034;2023-05-02T04:28:43;100606.53;;;14.65;52.21
57894;BME280;43710;47.460;19.034;2023-05-02T04:31:46;100616.22;;;14.66;53.04
57894;BME280;43710;47.460;19.034;2023-05-02T04:34:50;100624.22;;;14.71;51.25
57894;BME280;43710;47.460;19.034;2023-05-02T04:37:52;100626.63;;;14.73;56.56
57894;BME280;43710;47.460;19.034;2023-05-02T04:40:54;100630.09;;;15.01;51.10
57894;BME280;43710;47.460;19.034;2023-05-02T04:43:58;100634.91;;;14.90;58.50
57894;BME280;43710;47.460;19.034;2023-05-02T04:47:02;100627.41;;;14.87;54.09
57894;BME280;43710;47.460;19.034;2023-05-02T04:50:06;100631.78;;;14.83;53.45
57894;BME280;43710;47.460;19.034;2023-05-02T04:53:09;100628.00;;;14.98;52.73
57894;BME280;43710;47.460;19.034;2023-05-02T04:56:12;100630.72;;;15.20;54.69
57894;BME280;43710;47.460;19.034;2023-05-02T04:59:14;100637.53;;;15.18;54.09
57894;BME280;43710;47.460;19.034;2023-05-02T05:02:17;100631.34;;;15.17;54.26
57894;BME280;43710;47.460;19.034;2023-05-02T05:05:20;100636.31;;;15.24;61.86
57894;BME280;43710;47.460;19.034;2023-05-02T05:08:23;100628.09;;;15.29;54.17
57894;BME280;43710;47.460;19.034;2023-05-02T05:11:26;100640.63;;;15.47;57.80
57894;BME280;43710;47.460;19.034;2023-05-02T05:14:28;100638.62;;;15.53;55.87
57894;BME280;43710;47.460;19.034;2023-05-02T05:17:32;100640.41;;;15.58;55.91
57894;BME280;43710;47.460;19.034;2023-05-02T05:20:35;100645.75;;;15.71;60.27
57894;BME280;43710;47.460;19.034;2023-05-02T05:23:38;100645.06;;;15.88;54.09
57894;BME280;43710;47.460;19.034;2023-05-02T05:26:40;100651.66;;;15.96;53.10
57894;BME280;43710;47.460;19.034;2023-05-02T05:29:44;100648.88;;;16.18;53.19
57894;BME280;43710;47.460;19.034;2023-05-02T05:32:46;100653.69;;;16.21;54.40
57894;BME280;43710;47.460;19.034;2023-05-02T05:35:48;100660.87;;;16.26;65.03
57894;BME280;43710;47.460;19.034;2023-05-02T05:38:51;100652.03;;;16.43;60.55
57894;BME280;43710;47.460;19.034;2023-05-02T05:41:53;100655.22;;;16.45;56.55
57894;BME280;43710;47.460;19.034;2023-05-02T05:44:56;100653.16;;;16.51;52.01
57894;BME280;43710;47.460;19.034;2023-05-02T05:47:59;100669.78;;;16.66;52.52
57894;BME280;43710;47.460;19.034;2023-05-02T05:51:04;100674.44;;;16.75;59.28
57894;BME280;43710;47.460;19.034;2023-05-02T05:54:07;100672.72;;;16.87;58.47
57894;BME280;43710;47.460;19.034;2023-05-02T05:57:10;100669.75;;;17.06;53.41
57894;BME280;43710;47.460;19.034;2023-05-02T06:00:13;100668.81;;;17.20;57.27
57894;BME280;43710;47.460;19.034;2023-05-02T06:03:16;100674.53;;;17.18;51.34
57894;BME280;43710;47.460;19.034;2023-05-02T06:06:19;100672.81;;;17.22;52.57
57894;BME280;43710;47.460;19.034;2023-05-02T06:09:22;100669.62;;;17.29;50.18
57894;BME280;43710;47.460;19.034;2023-05-02T06:12:25;100673.44;;;17.36;51.95
57894;BME280;43710;47.460;19.034;2023-05-02T06:15:27;100669.91;;;17.45;54.75
57894;BME280;43710;47.460;19.034;2023-05-02T06:18:30;100670.75;;;17.45;51.44
57894;BME280;43710;47.460;19.034;2023-05-02T06:21:35;100681.09;;;17.60;60.78
57894;BME280;43710;47.460;19.034;2023-05-02T06:24:38;100666.88;;;17.64;52.15
57894;BME280;43710;47.460;19.034;2023-05-02T06:27:41;100677.87;;;17.67;60.20
57894;BME280;43710;47.460;19.034;2023-05-02T06:30:43;100670.41;;;17.73;52.15
57894;BME280;43710;47.460;19.034;2023-05-02T06:33:45;100677.75;;;17.72;61.91
57894;BME280;43710;47.460;19.034;2023-05-02T06:36:48;100675.84;;;17.81;52.17
57894;BME280;43710;47.460;19.034;2023-05-02T06:39:50;100671.37;;;17.86;50.33
57894;BME280;43710;47.460;19.034;2023-05-02T06:42:53;100678.06;;;17.88;54.55
57894;BME280;43710;47.460;19.034;2023-05-02T06:45:55;100678.22;;;17.92;51.64
57894;BME280;43710;47.460;19.034;2023-05-02T06:48:58;100675.81;;;17.99;53.98
57894;BME280;43710;47.460;19.034;2023-05-02T06:52:00;100678.63;;;18.20;51.07
57894;BME280;43710;47.460;19.034;2023-05-02T06:55:03;100673.81;;;18.25;48.44
57894;BME280;43710;47.460;19.034;2023-05-02T06:58:06;100685.13;;;18.36;49.77
57894;BME280;43710;47.460;19.034;2023-05-02T07:01:09;100671.88;;;18.35;51.77
57894;BME280;43710;47.460;19.034;2023-05-02T07:04:11;100677.84;;;18.58;49.86
57894;BME280;43710;47.460;19.034;2023-05-02T07:07:14;100674.19;;;18.53;49.16
57894;BME280;43710;47.460;19.034;2023-05-02T07:10:19;100683.59;;;18.56;52.64
57894;BME280;43710;47.460;19.034;2023-05-02T07:13:22;100677.00;;;18.66;52.55
57894;BME280;43710;47.460;19.034;2023-05-02T07:16:24;100674.63;;;18.64;47.61
57894;BME280;43710;47.460;19.034;2023-05-02T07:19:26;100679.72;;;18.74;50.61
57894;BME280;43710;47.460;19.034;2023-05-02T07:22:29;100679.53;;;18.71;55.98
57894;BME280;43710;47.460;19.034;2023-05-02T07:25:31;100682.72;;;18.82;54.81
57894;BME280;43710;47.460;19.034;2023-05-02T07:28:33;100671.63;;;18.87;49.28
57894;BME280;43710;47.460;19.034;2023-05-02T07:31:36;100676.78;;;18.80;49.53
57894;BME280;43710;47.460;19.034;2023-05-02T07:34:38;100683.97;;;18.84;49.53
57894;BME280;43710;47.460;19.034;2023-05-02T07:37:40;100685.66;;;18.97;51.55
57894;BME280;43710;47.460;19.034;2023-05-02T07:40:43;100683.22;;;19.05;48.37
57894;BME280;43710;47.460;19.034;2023-05-02T07:43:45;100692.59;;;19.07;49.75
57894;BME280;43710;47.460;19.034;2023-05-02T07:46:47;100685.59;;;19.06;46.99
57894;BME280;43710;47.460;19.034;2023-05-02T07:49:51;100688.56;;;19.13;52.13
57894;BME280;43710;47.460;19.034;2023-05-02T07:52:54;100693.91;;;19.31;51.45
57894;BME280;43710;47.460;19.034;2023-05-02T07:55:57;100689.13;;;19.28;48.65
57894;BME280;43710;47.460;19.034;2023-05-02T07:58:59;100690.56;;;19.25;51.69
57894;BME280;43710;47.460;19.034;2023-05-02T08:02:03;100682.56;;;19.29;49.38
57894;BME280;43710;47.460;19.034;2023-05-02T08:05:06;100681.91;;;19.32;48.10
57894;BME280;43710;47.460;19.034;2023-05-02T08:08:09;100681.69;;;19.37;51.75
57894;BME280;43710;47.460;19.034;2023-05-02T08:11:11;100686.00;;;19.38;50.41
57894;BME280;43710;47.460;19.034;2023-05-02T08:14:14;100680.31;;;19.31;48.28
57894;BME280;43710;47.460;19.034;2023-05-02T08:17:17;100689.97;;;19.19;52.91
57894;BME280;43710;47.460;19.034;2023-05-02T08:20:19;100697.94;;;19.24;50.44
57894;BME280;43710;47.460;19.034;2023-05-02T08:23:23;100697.38;;;19.10;48.65
57894;BME280;43710;47.460;19.034;2023-05-02T08:26:26;100693.56;;;19.11;48.63
57894;BME280;43710;47.460;19.034;2023-05-02T08:29:29;100686.28;;;19.24;50.33
57894;BME280;43710;47.460;19.034;2023-05-02T08:32:32;100690.97;;;19.36;53.85
57894;BME280;43710;47.460;19.034;2023-05-02T08:35:34;100687.13;;;19.37;50.21
57894;BME280;43710;47.460;19.034;2023-05-02T08:38:37;100678.50;;;19.35;49.96
57894;BME280;43710;47.460;19.034;2023-05-02T08:41:39;100672.88;;;19.40;46.10
57894;BME280;43710;47.460;19.034;2023-05-02T08:44:41;100664.03;;;19.43;49.21
57894;BME280;43710;47.460;19.034;2023-05-02T08:47:44;100672.47;;;19.50;48.99
57894;BME280;43710;47.460;19.034;2023-05-02T08:50:48;100679.88;;;19.62;52.60
57894;BME280;43710;47.460;19.034;2023-05-02T08:53:52;100670.31;;;19.64;49.62
57894;BME280;43710;47.460;19.034;2023-05-02T08:56:55;100676.91;;;19.76;48.12
57894;BME280;43710;47.460;19.034;2023-05-02T09:00:00;100662.88;;;19.86;46.98
57894;BME280;43710;47.460;19.034;2023-05-02T09:03:28;100666.31;;;19.95;47.28
57894;BME280;43710;47.460;19.034;2023-05-02T09:06:32;100663.25;;;19.97;47.70
57894;BME280;43710;47.460;19.034;2023-05-02T09:09:36;100656.34;;;19.99;47.35
57894;BME280;43710;47.460;19.034;2023-05-02T09:12:39;100659.31;;;20.18;49.21
57894;BME280;43710;47.460;19.034;2023-05-02T09:15:41;100657.75;;;20.17;47.76
57894;BME280;43710;47.460;19.034;2023-05-02T09:18:46;100657.31;;;20.28;46.62
57894;BME280;43710;47.460;19.034;2023-05-02T09:21:49;100658.88;;;20.29;47.22
57894;BME280;43710;47.460;19.034;2023-05-02T09:24:55;100658.00;;;20.37;45.28
57894;BME280;43710;47.460;19.034;2023-05-02T09:27:58;100649.03;;;20.36;45.63
57894;BME280;43710;47.460;19.034;2023-05-02T09:31:07;100649.84;;;20.37;46.31
57894;BME280;43710;47.460;19.034;2023-05-02T09:34:16;100650.63;;;20.50;44.97
57894;BME280;43710;47.460;19.034;2023-05-02T09:37:34;100656.34;;;20.57;46.10
57894;BME280;43710;47.460;19.034;2023-05-02T09:40:37;100654.41;;;20.70;44.17
57894;BME280;43710;47.460;19.034;2023-05-02T09:43:39;100658.13;;;20.65;45.46
57894;BME280;43710;47.460;19.034;2023-05-02T09:46:44;100653.47;;;20.65;45.07
57894;BME280;43710;47.460;19.034;2023-05-02T09:49:46;100652.91;;;20.72;45.30
57894;BME280;43710;47.460;19.034;2023-05-02T09:53:03;100645.31;;;20.78;44.92
57894;BME280;43710;47.460;19.034;2023-05-02T09:56:06;100633.03;;;20.84;44.47
57894;BME280;43710;47.460;19.034;2023-05-02T09:59:13;100644.13;;;21.03;47.78
57894;BME280;43710;47.460;19.034;2023-05-02T10:02:16;100633.53;;;21.14;42.82
57894;BME280;43710;47.460;19.034;2023-05-02T10:05:19;100644.66;;;21.21;44.32
57894;BME280;43710;47.460;19.034;2023-05-02T10:08:24;100653.87;;;21.17;44.41
57894;BME280;43710;47.460;19.034;2023-05-02T10:11:29;100653.41;;;21.15;44.27
57894;BME280;43710;47.460;19.034;2023-05-02T10:14:39;100652.72;;;21.18;43.16
57894;BME280;43710;47.460;19.034;2023-05-02T10:17:47;100648.06;;;21.18;43.39
57894;BME280;43710;47.460;19.034;2023-05-02T10:21:05;100638.03;;;21.22;43.46
57894;BME280;43710;47.460;19.034;2023-05-02T10:24:09;100633.94;;;21.28;43.51
57894;BME280;43710;47.460;19.034;2023-05-02T10:27:12;100633.63;;;21.18;42.83
57894;BME280;43710;47.460;19.034;2023-05-02T10:30:16;100632.25;;;21.24;45.24
57894;BME280;43710;47.460;19.034;2023-05-02T10:33:20;100636.13;;;21.23;43.97
57894;BME280;43710;47.460;19.034;2023-05-02T10:36:23;100630.00;;;21.26;43.32
57894;BME280;43710;47.460;19.034;2023-05-02T10:39:26;100635.62;;;21.33;43.15
57894;BME280;43710;47.460;19.034;2023-05-02T10:42:29;100631.09;;;21.37;44.28
57894;BME280;43710;47.460;19.034;2023-05-02T10:45:33;100628.13;;;21.42;43.35
57894;BME280;43710;47.460;19.034;2023-05-02T10:48:35;100629.97;;;21.38;43.13
57894;BME280;43710;47.460;19.034;2023-05-02T10:51:40;100626.53;;;21.29;43.17
57894;BME280;43710;47.460;19.034;2023-05-02T10:54:43;100625.56;;;21.21;43.31
57894;BME280;43710;47.460;19.034;2023-05-02T11:05:00;100617.75;;;21.20;44.12
57894;BME280;43710;47.460;19.034;2023-05-02T11:08:29;100610.31;;;21.32;42.38
57894;BME280;43710;47.460;19.034;2023-05-02T11:11:41;100600.44;;;21.28;44.99
57894;BME280;43710;47.460;19.034;2023-05-02T11:14:45;100598.16;;;21.30;44.08
57894;BME280;43710;47.460;19.034;2023-05-02T11:18:15;100587.94;;;21.39;44.99
57894;BME280;43710;47.460;19.034;2023-05-02T11:21:28;100594.91;;;21.52;44.98
57894;BME280;43710;47.460;19.034;2023-05-02T11:24:39;100586.63;;;21.65;44.41
57894;BME280;43710;47.460;19.034;2023-05-02T11:27:42;100582.87;;;21.69;44.22
57894;BME280;43710;47.460;19.034;2023-05-02T11:30:46;100581.38;;;21.72;43.71
57894;BME280;43710;47.460;19.034;2023-05-02T11:36:58;100586.72;;;21.68;44.29
57894;BME280;43710;47.460;19.034;2023-05-02T11:40:13;100582.44;;;21.67;44.62
57894;BME280;43710;47.460;19.034;2023-05-02T11:43:17;100581.47;;;21.60;41.66
57894;BME280;43710;47.460;19.034;2023-05-02T11:46:20;100577.47;;;21.57;42.73
57894;BME280;43710;47.460;19.034;2023-05-02T11:49:22;100584.69;;;21.49;43.51
57894;BME280;43710;47.460;19.034;2023-05-02T11:52:25;100585.47;;;21.50;43.79
57894;BME280;43710;47.460;19.034;2023-05-02T11:55:27;100571.47;;;21.51;44.18
57894;BME280;43710;47.460;19.034;2023-05-02T11:58:31;100571.97;;;21.69;42.60
57894;BME280;43710;47.460;19.034;2023-05-02T12:01:34;100574.97;;;21.80;42.16
57894;BME280;43710;47.460;19.034;2023-05-02T12:04:44;100571.53;;;21.83;42.75
57894;BME280;43710;47.460;19.034;2023-05-02T12:07:46;100568.38;;;21.97;40.94
57894;BME280;43710;47.460;19.034;2023-05-02T12:10:54;100567.81;;;21.91;42.37
57894;BME280;43710;47.460;19.034;2023-05-02T12:13:57;100567.13;;;21.78;40.30
57894;BME280;43710;47.460;19.034;2023-05-02T12:17:01;100568.97;;;21.74;39.70
57894;BME280;43710;47.460;19.034;2023-05-02T12:20:05;100563.59;;;21.94;40.77
57894;BME280;43710;47.460;19.034;2023-05-02T12:23:09;100566.88;;;21.99;39.81
57894;BME280;43710;47.460;19.034;2023-05-02T12:26:18;100565.87;;;22.08;39.48
57894;BME280;43710;47.460;19.034;2023-05-02T12:29:21;100565.66;;;22.28;39.69
57894;BME280;43710;47.460;19.034;2023-05-02T12:32:28;100550.47;;;22.31;38.96
57894;BME280;43710;47.460;19.034;2023-05-02T12:35:34;100549.75;;;22.34;40.05
57894;BME280;43710;47.460;19.034;2023-05-02T12:38:37;100550.91;;;22.33;38.82
57894;BME280;43710;47.460;19.034;2023-05-02T12:41:39;100550.75;;;22.42;40.31
57894;BME280;43710;47.460;19.034;2023-05-02T12:44:48;100562.78;;;22.41;38.15
57894;BME280;43710;47.460;19.034;2023-05-02T12:47:52;100562.87;;;22.44;38.42
57894;BME280;43710;47.460;19.034;2023-05-02T12:50:54;100557.94;;;22.34;38.00
57894;BME280;43710;47.460;19.034;2023-05-02T12:53:57;100563.88;;;22.36;38.96
57894;BME280;43710;47.460;19.034;2023-05-02T12:56:59;100556.31;;;22.30;39.46
57894;BME280;43710;47.460;19.034;2023-05-02T13:00:05;100562.03;;;22.24;39.07
57894;BME280;43710;47.460;19.034;2023-05-02T13:03:08;100543.62;;;22.21;40.14
57894;BME280;43710;47.460;19.034;2023-05-02T13:06:11;100547.88;;;22.19;41.07
57894;BME280;43710;47.460;19.034;2023-05-02T13:09:14;100545.63;;;22.24;39.50
57894;BME280;43710;47.460;19.034;2023-05-02T13:12:16;100548.28;;;22.21;39.67
57894;BME280;43710;47.460;19.034;2023-05-02T13:15:19;100544.66;;;22.01;40.45
57894;BME280;43710;47.460;19.034;2023-05-02T13:18:21;100539.03;;;21.94;41.48
57894;BME280;43710;47.460;19.034;2023-05-02T13:21:24;100539.22;;;21.85;40.97
57894;BME280;43710;47.460;19.034;2023-05-02T13:24:26;100533.31;;;21.83;40.40
57894;BME280;43710;47.460;19.034;2023-05-02T13:27:28;100539.94;;;21.82;41.42
57894;BME280;43710;47.460;19.034;2023-05-02T13:30:31;100540.53;;;21.75;41.02
57894;BME280;43710;47.460;19.034;2023-05-02T13:33:34;100528.13;;;21.78;41.55
57894;BME280;43710;47.460;19.034;2023-05-02T13:36:36;100535.00;;;21.88;40.49
57894;BME280;43710;47.460;19.034;2023-05-02T13:39:44;100531.84;;;21.86;40.61
57894;BME280;43710;47.460;19.034;2023-05-02T13:42:47;100534.72;;;21.93;41.50
57894;BME280;43710;47.460;19.034;2023-05-02T13:45:49;100526.97;;;21.95;40.42
57894;BME280;43710;47.460;19.034;2023-05-02T13:48:53;100532.78;;;21.93;40.53
57894;BME280;43710;47.460;19.034;2023-05-02T13:51:55;100528.28;;;22.01;42.73
57894;BME280;43710;47.460;19.034;2023-05-02T13:54:57;100529.00;;;21.98;40.97
57894;BME280;43710;47.460;19.034;2023-05-02T13:58:00;100533.59;;;21.94;41.72
57894;BME280;43710;47.460;19.034;2023-05-02T14:01:03;100529.78;;;21.98;43.73
57894;BME280;43710;47.460;19.034;2023-05-02T14:04:06;100530.75;;;22.06;40.99
57894;BME280;43710;47.460;19.034;2023-05-02T14:07:10;100522.50;;;22.02;38.90
57894;BME280;43710;47.460;19.034;2023-05-02T14:10:12;100534.97;;;22.03;41.08
57894;BME280;43710;47.460;19.034;2023-05-02T14:13:14;100526.78;;;22.03;39.36
57894;BME280;43710;47.460;19.034;2023-05-02T14:16:17;100526.34;;;22.01;40.79
57894;BME280;43710;47.460;19.034;2023-05-02T14:19:19;100524.44;;;22.02;40.17
57894;BME280;43710;47.460;19.034;2023-05-02T14:22:22;100529.06;;;22.01;40.56
57894;BME280;43710;47.460;19.034;2023-05-02T14:25:24;100528.75;;;22.03;41.06
57894;BME280;43710;47.460;19.034;2023-05-02T14:28:26;100529.78;;;21.98;38.81
57894;BME280;43710;47.460;19.034;2023-05-02T14:31:29;100525.81;;;22.12;41.05
57894;BME280;43710;47.460;19.034;2023-05-02T14:34:34;100523.34;;;22.07;39.33
57894;BME280;43710;47.460;19.034;2023-05-02T14:37:36;100519.69;;;21.99;39.09
57894;BME280;43710;47.460;19.034;2023-05-02T14:40:39;100529.97;;;22.05;39.99
57894;BME280;43710;47.460;19.034;2023-05-02T14:43:41;100528.37;;;22.04;39.29
57894;BME280;43710;47.460;19.034;2023-05-02T14:46:44;100529.63;;;21.91;40.69
57894;BME280;43710;47.460;19.034;2023-05-02T14:49:46;100530.59;;;21.83;40.17
57894;BME280;43710;47.460;19.034;2023-05-02T14:52:55;100542.22;;;21.80;41.67
57894;BME280;43710;47.460;19.034;2023-05-02T14:55:57;100538.59;;;21.92;40.47
57894;BME280;43710;47.460;19.034;2023-05-02T14:58:59;100539.03;;;21.94;40.82
57894;BME280;43710;47.460;19.034;2023-05-02T15:02:02;100538.00;;;21.83;39.71
57894;BME280;43710;47.460;19.034;2023-05-02T15:05:04;100533.56;;;21.78;40.36
57894;BME280;43710;47.460;19.034;2023-05-02T15:08:08;100531.81;;;21.70;40.60
57894;BME280;43710;47.460;19.034;2023-05-02T15:11:11;100541.97;;;21.69;43.22
57894;BME280;43710;47.460;19.034;2023-05-02T15:14:13;100552.69;;;21.78;41.97
57894;BME280;43710;47.460;19.034;2023-05-02T15:17:16;100545.91;;;21.72;43.04
57894;BME280;43710;47.460;19.034;2023-05-02T15:20:18;100540.97;;;21.62;42.98
57894;BME280;43710;47.460;19.034;2023-05-02T15:23:21;100532.78;;;21.62;41.57
57894;BME280;43710;47.460;19.034;2023-05-02T15:26:23;100531.13;;;21.57;42.13
57894;BME280;43710;47.460;19.034;2023-05-02T15:29:27;100524.09;;;21.56;42.01
57894;BME280;43710;47.460;19.034;2023-05-02T15:32:29;100530.56;;;21.51;42.32
57894;BME280;43710;47.460;19.034;2023-05-02T15:35:31;100525.47;;;21.50;41.49
57894;BME280;43710;47.460;19.034;2023-05-02T15:38:34;100526.97;;;21.47;40.83
